Bookmark and Share
Track history (hours):
 

Reykjafoss

Last reported at 2014-Apr-20 01:33 UTC. Time now 2014-Apr-23 19:05 UTC.
Position N 59°34' W 006°24'.

Length 127 m; draft 7.3 m.

Type: Cargo ship. MMSI: 305624000.

NotesDate/timePositionNaut miles runAvg speedWind from/ knotsBaromVisibWave heightAir tempDewpointWater temp
2014-Apr-20 01:33N 59°34' W 006°24'1413.5
2014-Apr-20 00:32N 59°28' W 006°00'1313.3
2014-Apr-19 23:33N 59°21' W 005°38'1813.4
2014-Apr-19 22:14N 59°13' W 005°07'913.3
2014-Apr-19 21:33N 59°09' W 004°51'1313.5
2014-Apr-19 20:33N 59°03' W 004°28'1414.0
2014-Apr-19 19:34N 58°56' W 004°04'1414.2
2014-Apr-19 18:33N 58°49' W 003°40'1616.3
2014-Apr-19 17:33N 58°43' W 003°11'1716.6
2014-Apr-19 16:32N 58°31' W 002°48'1515.5
2014-Apr-19 15:32N 58°19' W 002°31'1515.0
2014-Apr-19 14:33N 58°06' W 002°16'1614.9
2014-Apr-19 13:28N 57°53' W 001°58'1314.4
2014-Apr-19 12:34N 57°42' W 001°45'1514.8
2014-Apr-19 11:34N 57°29' W 001°31'9515.2
2014-Apr-19 05:17N 56°05' W 000°09'1013.7
2014-Apr-19 04:31N 55°56' W 000°00'3013.6
2014-Apr-19 02:21N 55°30' E 000°25'1113.9
2014-Apr-19 01:33N 55°20' E 000°34'22213.0
2014-Apr-18 08:32N 52°07' E 003°38'1111.7
2014-Apr-18 07:33N 52°02' E 003°55'1212.3
2014-Apr-18 06:33N 51°56' E 004°12'9 8.9
2014-Apr-18 05:34N 51°54' E 004°26'0 0.3
2014-Apr-18 04:31N 51°53' E 004°26'0 0.0
2014-Apr-18 03:31N 51°53' E 004°26'0 0.0
2014-Apr-18 02:31N 51°53' E 004°26'0 0.0
2014-Apr-18 01:31N 51°53' E 004°26'0 0.0
2014-Apr-18 00:19N 51°53' E 004°26'0 0.0
2014-Apr-17 23:31N 51°53' E 004°26'0 0.0
2014-Apr-17 22:31N 51°53' E 004°26'0 0.0
2014-Apr-17 21:31N 51°53' E 004°26'0 0.0
2014-Apr-17 20:31N 51°53' E 004°26'0 0.0
2014-Apr-17 19:31N 51°53' E 004°26'0 0.0
2014-Apr-17 18:28N 51°53' E 004°26'0 0.0
2014-Apr-17 17:31N 51°53' E 004°26'0 0.0
2014-Apr-17 16:31N 51°53' E 004°26'0 0.0
2014-Apr-17 15:31N 51°53' E 004°26'0 0.0
2014-Apr-17 14:31N 51°53' E 004°26'0 0.0
2014-Apr-17 13:25N 51°53' E 004°26'0 0.0
2014-Apr-17 12:31N 51°53' E 004°26'0 0.0
2014-Apr-17 11:31N 51°53' E 004°26'0 0.0
2014-Apr-17 10:31N 51°53' E 004°26'0 0.5
2014-Apr-17 09:34N 51°54' E 004°26'8 8.0
2014-Apr-17 08:33N 51°56' E 004°13'1211.7
2014-Apr-17 07:33N 52°00' E 003°56'1813.1
2014-Apr-17 06:10N 52°07' E 003°28'1413.6
2014-Apr-17 05:09N 52°15' E 003°11'1013.8
2014-Apr-17 04:26N 52°21' E 002°58'1213.5
2014-Apr-17 03:33N 52°29' E 002°43'1313.3
2014-Apr-17 02:33N 52°37' E 002°26'1312.8
2014-Apr-17 01:33N 52°46' E 002°10'1212.3
2014-Apr-17 00:33N 52°55' E 001°57'1312.9
2014-Apr-16 23:33N 53°02' E 001°39'1413.6
2014-Apr-16 22:33N 53°11' E 001°23'1714.0
2014-Apr-16 21:23N 53°21' E 000°60'1113.9
2014-Apr-16 20:33N 53°25' E 000°42'1413.9
2014-Apr-16 19:33N 53°32' E 000°22'1212.5
2014-Apr-16 18:33N 53°35' E 000°01'8 8.0
2014-Apr-16 17:33N 53°38' W 000°11'0 0.4
2014-Apr-16 16:33N 53°38' W 000°12'0 0.0
2014-Apr-16 15:19N 53°38' W 000°12'0 0.0
2014-Apr-16 14:28N 53°38' W 000°12'0 0.0
2014-Apr-16 13:28N 53°38' W 000°12'0 0.0
2014-Apr-16 12:28N 53°38' W 000°12'0 0.0
2014-Apr-16 11:25N 53°38' W 000°12'0 0.0
2014-Apr-16 10:25N 53°38' W 000°12'0 0.0
2014-Apr-16 09:28N 53°38' W 000°12'0 0.0
2014-Apr-16 08:32N 53°38' W 000°12'1 0.6
2014-Apr-16 07:33N 53°38' W 000°11'6 6.2
2014-Apr-16 06:33N 53°37' W 000°01'1110.5
2014-Apr-16 05:33N 53°35' E 000°17'1010.1
2014-Apr-16 04:32N 53°45' E 000°20'7 7.0
2014-Apr-16 03:33N 53°51' E 000°17'1111.1
2014-Apr-16 02:33N 54°02' E 000°12'1110.5
2014-Apr-16 01:33N 54°12' E 000°07'10 9.6
2014-Apr-16 00:33N 54°21' E 000°02'9 9.0
2014-Apr-15 23:33N 54°30' W 000°02'9 8.6
2014-Apr-15 22:33N 54°38' W 000°07'8 8.5
2014-Apr-15 21:33N 54°46' W 000°11'9 8.7
2014-Apr-15 20:33N 54°55' W 000°15'9 9.3
2014-Apr-15 19:33N 55°04' W 000°19'10 9.3
2014-Apr-15 18:31N 55°13' W 000°23'1111.2
2014-Apr-15 17:32N 55°24' W 000°28'1212.0
2014-Apr-15 16:33N 55°35' W 000°34'1211.9
2014-Apr-15 15:33N 55°46' W 000°40'17912.0
2014-Apr-15 00:34N 58°32' W 002°47'1312.7
2014-Apr-14 23:34N 58°42' W 003°02'1212.2
2014-Apr-14 22:33N 58°46' W 003°23'1414.0
2014-Apr-14 21:33N 58°57' W 003°40'1413.9
2014-Apr-14 20:34N 59°09' W 003°56'18714.4
2014-Apr-14 07:34N 61°43' W 007°28'  

Dump ship's entire track history

sailing weather and tide predictions

Reykjafoss — V2FB6 — position and weather